Time;durP1;ratioP1;P1;durP2;ratioP2;P2;SDS_P1;SDS_P2;PMS_P1;PMS_P2;Temp;Humidity;BMP_temperature;BMP_pressure;BME280_temperature;BME280_humidity;BME280_pressure;Samples;Min_cycle;Max_cycle;Signal;HPM_P1;HPM_P2
2023/05/13 00:00:36;;;;;;;;;;;;;;;18.14;39.86;101559.94;4106154;28;20057;-64
2023/05/13 00:02:38;;;;;;;;;;;;;;;18.12;39.74;101567.47;4105857;28;20029;-64
2023/05/13 00:04:40;;;;;;;;;;;;;;;18.08;39.85;101563.50;4106093;28;20381;-65
2023/05/13 00:06:43;;;;;;;;;;;;;;;18.05;39.88;101566.63;4105645;28;20004;-65
2023/05/13 00:08:45;;;;;;;;;;;;;;;18.01;40.08;101567.03;4104403;28;20042;-64
2023/05/13 00:10:47;;;;;;;;;;;;;;;17.96;39.96;101572.28;4104971;28;20016;-64
2023/05/13 00:12:49;;;;;;;;;;;;;;;17.92;40.09;101565.53;4105641;28;20029;-65
2023/05/13 00:14:51;;;;;;;;;;;;;;;17.89;39.83;101565.13;4106486;28;19981;-64
2023/05/13 00:16:53;;;;;;;;;;;;;;;17.87;40.00;101558.97;4107051;28;20480;-65
2023/05/13 00:18:55;;;;;;;;;;;;;;;17.87;39.74;101562.56;4108417;28;20022;-65
2023/05/13 00:20:57;;;;;;;;;;;;;;;17.86;39.65;101558.13;4109324;28;20362;-64
2023/05/13 00:23:02;;;;;;;;;;;;;;;17.87;39.83;101564.44;4108010;28;20037;-65
2023/05/13 00:25:04;;;;;;;;;;;;;;;17.80;39.98;101567.97;4110678;28;20412;-65
2023/05/13 00:27:06;;;;;;;;;;;;;;;17.82;39.61;101565.03;4110225;28;20030;-64
2023/05/13 00:29:08;;;;;;;;;;;;;;;17.79;39.50;101569.06;4109333;28;20035;-65
2023/05/13 00:31:10;;;;;;;;;;;;;;;17.80;39.77;101567.16;4108322;28;20025;-64
2023/05/13 00:33:12;;;;;;;;;;;;;;;17.75;39.77;101569.66;4107279;28;20674;-65
2023/05/13 00:35:13;;;;;;;;;;;;;;;17.74;40.15;101573.44;4092123;28;20017;-64
2023/05/13 00:37:15;;;;;;;;;;;;;;;17.75;39.86;101581.41;4106783;28;20025;-64
2023/05/13 00:39:21;;;;;;;;;;;;;;;17.73;39.75;101582.69;4107368;28;20364;-65
2023/05/13 00:41:25;;;;;;;;;;;;;;;17.74;39.93;101582.50;4108691;28;20013;-65
2023/05/13 00:43:26;;;;;;;;;;;;;;;17.75;39.90;101577.84;4108033;28;20029;-64
2023/05/13 00:45:29;;;;;;;;;;;;;;;17.75;39.93;101586.06;4075360;29;20398;-64
2023/05/13 00:47:31;;;;;;;;;;;;;;;17.73;40.25;101585.44;4107644;28;20366;-64
2023/05/13 00:49:33;;;;;;;;;;;;;;;17.67;40.17;101586.25;4108687;28;20041;-64
2023/05/13 00:51:35;;;;;;;;;;;;;;;17.64;40.28;101587.47;4074697;29;20050;-65
2023/05/13 00:53:37;;;;;;;;;;;;;;;17.60;40.43;101592.50;4108501;28;20021;-64
2023/05/13 00:55:44;;;;;;;;;;;;;;;17.59;39.99;101590.81;4109326;28;20028;-65
2023/05/13 00:57:46;;;;;;;;;;;;;;;17.57;40.22;101586.59;4107415;28;20033;-64
2023/05/13 00:59:49;;;;;;;;;;;;;;;17.56;40.41;101590.38;4107534;28;20445;-64
2023/05/13 01:01:55;;;;;;;;;;;;;;;17.55;40.27;101588.69;4075342;29;20021;-64
2023/05/13 01:04:00;;;;;;;;;;;;;;;17.57;40.43;101587.47;4107829;28;20030;-64
2023/05/13 01:06:04;;;;;;;;;;;;;;;17.55;40.54;101584.06;4093560;28;20516;-64
2023/05/13 01:08:09;;;;;;;;;;;;;;;17.51;40.40;101592.88;4108723;28;20025;-64
2023/05/13 01:10:11;;;;;;;;;;;;;;;17.46;40.47;101596.19;4105065;28;20472;-64
2023/05/13 01:12:16;;;;;;;;;;;;;;;17.46;40.04;101593.47;4091048;28;20611;-64
2023/05/13 01:14:20;;;;;;;;;;;;;;;17.44;40.29;101592.84;4089541;29;20021;-64
2023/05/13 01:16:25;;;;;;;;;;;;;;;17.42;40.47;101593.03;4106940;28;20056;-64
2023/05/13 01:18:28;;;;;;;;;;;;;;;17.42;40.24;101595.78;4090618;28;20025;-64
2023/05/13 01:20:30;;;;;;;;;;;;;;;17.40;40.43;101602.50;4107217;28;20507;-64
2023/05/13 01:22:34;;;;;;;;;;;;;;;17.32;40.64;101594.44;4073896;29;20022;-64
2023/05/13 01:24:36;;;;;;;;;;;;;;;17.29;40.89;101598.44;4107222;28;20032;-64
2023/05/13 01:26:39;;;;;;;;;;;;;;;17.30;40.87;101608.28;4075146;29;20022;-64
2023/05/13 01:28:42;;;;;;;;;;;;;;;17.27;40.55;101604.09;4089696;29;20030;-64
2023/05/13 01:30:44;;;;;;;;;;;;;;;17.29;40.58;101607.47;4107872;28;20032;-64
2023/05/13 01:32:47;;;;;;;;;;;;;;;17.29;41.05;101609.34;4106687;28;20025;-64
2023/05/13 01:34:51;;;;;;;;;;;;;;;17.24;40.97;101604.50;4091637;28;20384;-64
2023/05/13 01:36:53;;;;;;;;;;;;;;;17.23;41.13;101612.88;4073573;29;20400;-64
2023/05/13 01:38:58;;;;;;;;;;;;;;;17.17;41.23;101605.50;4106149;28;20427;-64
2023/05/13 01:41:02;;;;;;;;;;;;;;;17.11;41.13;101612.59;4089895;29;20054;-64
2023/05/13 01:43:06;;;;;;;;;;;;;;;17.14;41.53;101614.09;4089265;29;20097;-64
2023/05/13 01:45:08;;;;;;;;;;;;;;;17.16;40.97;101612.81;4105926;28;20058;-64
2023/05/13 01:47:11;;;;;;;;;;;;;;;17.19;41.26;101617.88;4074342;29;19973;-65
2023/05/13 01:49:13;;;;;;;;;;;;;;;17.19;41.29;101617.06;4090038;28;20013;-64
2023/05/13 01:51:15;;;;;;;;;;;;;;;17.17;41.35;101619.16;4107454;28;20364;-64
2023/05/13 01:53:17;;;;;;;;;;;;;;;17.15;41.31;101619.34;4090356;29;20030;-64
2023/05/13 01:55:21;;;;;;;;;;;;;;;17.13;41.62;101626.88;4075137;29;20038;-64
2023/05/13 01:57:24;;;;;;;;;;;;;;;17.11;41.51;101618.03;4074407;29;20037;-64
2023/05/13 01:59:26;;;;;;;;;;;;;;;17.08;41.75;101624.75;4089542;29;20013;-64
2023/05/13 02:01:28;;;;;;;;;;;;;;;17.08;41.78;101623.91;4107117;28;20009;-64
2023/05/13 02:03:30;;;;;;;;;;;;;;;17.09;41.83;101623.69;4105654;28;20021;-64
2023/05/13 02:05:32;;;;;;;;;;;;;;;17.11;41.51;101624.38;4092714;28;20018;-64
2023/05/13 02:07:38;;;;;;;;;;;;;;;17.10;41.85;101621.84;4105128;28;20482;-64
2023/05/13 02:09:40;;;;;;;;;;;;;;;17.08;41.97;101621.16;4106264;28;20020;-64
2023/05/13 02:11:44;;;;;;;;;;;;;;;17.01;41.84;101618.41;4106176;28;20020;-65
2023/05/13 02:13:47;;;;;;;;;;;;;;;17.03;41.83;101613.56;4077302;29;19927;-64
2023/05/13 02:15:49;;;;;;;;;;;;;;;17.00;42.05;101615.88;4106819;28;20021;-64
2023/05/13 02:17:51;;;;;;;;;;;;;;;17.01;41.55;101620.28;4106776;28;20025;-64
2023/05/13 02:19:53;;;;;;;;;;;;;;;16.98;41.82;101616.06;4073340;29;20489;-65
2023/05/13 02:21:55;;;;;;;;;;;;;;;16.93;41.68;101622.13;4087511;29;20480;-64
2023/05/13 02:23:57;;;;;;;;;;;;;;;16.84;41.95;101622.44;4105413;28;20033;-64
2023/05/13 02:25:59;;;;;;;;;;;;;;;16.81;42.17;101625.56;4074702;29;20017;-64
2023/05/13 02:28:04;;;;;;;;;;;;;;;16.81;41.86;101623.66;4089342;28;20057;-64
2023/05/13 02:30:06;;;;;;;;;;;;;;;16.84;41.93;101620.53;4088642;28;20444;-64
2023/05/13 02:32:08;;;;;;;;;;;;;;;16.86;41.67;101618.47;4105066;28;20610;-64
2023/05/13 02:34:10;;;;;;;;;;;;;;;16.87;41.84;101624.78;4089101;29;20025;-64
2023/05/13 02:36:12;;;;;;;;;;;;;;;16.86;41.86;101623.09;4105431;28;20025;-65
2023/05/13 02:38:14;;;;;;;;;;;;;;;16.84;41.78;101631.44;4088515;28;20375;-65
2023/05/13 02:40:17;;;;;;;;;;;;;;;16.82;41.80;101622.63;4087874;29;20025;-65
2023/05/13 02:42:21;;;;;;;;;;;;;;;16.80;41.75;101634.75;4074531;29;20025;-65
2023/05/13 02:44:24;;;;;;;;;;;;;;;16.78;41.77;101631.41;4106206;28;20068;-65
2023/05/13 02:46:27;;;;;;;;;;;;;;;16.75;41.87;101630.75;4089916;28;20017;-65
2023/05/13 02:48:30;;;;;;;;;;;;;;;16.70;42.24;101632.38;4103411;28;20032;-64
2023/05/13 02:50:32;;;;;;;;;;;;;;;16.69;42.06;101633.41;4106145;28;20029;-65
2023/05/13 02:52:35;;;;;;;;;;;;;;;16.66;41.79;101628.34;4087932;29;20025;-65
2023/05/13 02:54:37;;;;;;;;;;;;;;;16.68;41.88;101629.00;4104436;28;20386;-65
2023/05/13 02:56:40;;;;;;;;;;;;;;;16.66;42.02;101628.34;4106276;28;20049;-65
2023/05/13 02:58:42;;;;;;;;;;;;;;;16.70;41.97;101638.66;4089984;29;20028;-65
2023/05/13 03:00:45;;;;;;;;;;;;;;;16.71;41.76;101634.91;4104341;28;20033;-65
2023/05/13 03:02:47;;;;;;;;;;;;;;;16.70;41.88;101644.13;4103575;28;20030;-65
2023/05/13 03:04:49;;;;;;;;;;;;;;;16.67;41.81;101635.50;4105096;28;20016;-64
2023/05/13 03:06:52;;;;;;;;;;;;;;;16.63;41.91;101639.63;4106509;28;20021;-64
2023/05/13 03:08:55;;;;;;;;;;;;;;;16.62;41.69;101643.44;4106059;28;19942;-64
2023/05/13 03:10:57;;;;;;;;;;;;;;;16.56;41.51;101640.41;4089136;29;20041;-64
2023/05/13 03:12:59;;;;;;;;;;;;;;;16.52;42.02;101641.88;4090823;28;20452;-64
2023/05/13 03:15:01;;;;;;;;;;;;;;;16.50;42.16;101645.81;4105851;28;20025;-64
2023/05/13 03:17:06;;;;;;;;;;;;;;;16.46;42.30;101647.25;4073600;29;20027;-65
2023/05/13 03:19:09;;;;;;;;;;;;;;;16.45;42.06;101651.03;4104491;28;20048;-64
2023/05/13 03:21:11;;;;;;;;;;;;;;;16.42;41.85;101644.06;4089416;29;20021;-65
2023/05/13 03:23:14;;;;;;;;;;;;;;;16.43;42.18;101651.22;4089071;28;20030;-64
2023/05/13 03:25:18;;;;;;;;;;;;;;;16.42;42.03;101649.50;4088016;29;20029;-65
2023/05/13 03:27:25;;;;;;;;;;;;;;;16.34;42.06;101652.38;4095236;29;20013;-64
2023/05/13 03:29:27;;;;;;;;;;;;;;;16.29;42.18;101654.84;4089426;29;20033;-64
2023/05/13 03:31:31;;;;;;;;;;;;;;;16.22;42.14;101657.47;4087420;29;20346;-65
2023/05/13 03:33:38;;;;;;;;;;;;;;;16.20;42.31;101654.94;4087509;29;20029;-64
2023/05/13 03:35:40;;;;;;;;;;;;;;;16.23;42.41;101655.59;4073794;29;20014;-65
2023/05/13 03:37:42;;;;;;;;;;;;;;;16.16;42.70;101653.66;4104546;28;20020;-65
2023/05/13 03:39:46;;;;;;;;;;;;;;;16.11;42.38;101656.09;4072379;29;20031;-65
2023/05/13 03:41:48;;;;;;;;;;;;;;;16.16;42.74;101656.38;4088598;29;20038;-65
2023/05/13 03:43:51;;;;;;;;;;;;;;;16.20;42.21;101656.81;4087784;29;20021;-64
2023/05/13 03:45:53;;;;;;;;;;;;;;;16.20;42.45;101663.09;4106185;28;20026;-65
2023/05/13 03:47:57;;;;;;;;;;;;;;;16.21;42.32;101655.78;4057919;29;20062;-65
2023/05/13 03:50:01;;;;;;;;;;;;;;;16.20;42.53;101665.00;4105345;28;19926;-65
2023/05/13 03:52:09;;;;;;;;;;;;;;;16.11;42.88;101666.16;4107944;28;20486;-65
2023/05/13 03:54:11;;;;;;;;;;;;;;;16.06;43.13;101665.88;4078346;29;20158;-65
2023/05/13 03:56:15;;;;;;;;;;;;;;;16.07;43.37;101670.31;4091270;29;20025;-65
2023/05/13 03:58:21;;;;;;;;;;;;;;;16.07;43.18;101668.41;4091690;29;20038;-65
2023/05/13 04:00:24;;;;;;;;;;;;;;;16.03;43.70;101665.25;4107987;28;20024;-65
2023/05/13 04:02:26;;;;;;;;;;;;;;;16.00;44.00;101668.34;4107554;28;20024;-65
2023/05/13 04:04:28;;;;;;;;;;;;;;;16.04;43.98;101676.97;4075366;29;20034;-65
2023/05/13 04:06:33;;;;;;;;;;;;;;;16.06;44.28;101676.78;4091135;29;20017;-65
2023/05/13 04:08:35;;;;;;;;;;;;;;;16.07;44.17;101679.31;4092186;28;20464;-65
2023/05/13 04:10:37;;;;;;;;;;;;;;;16.12;44.23;101686.91;4105245;28;20499;-65
2023/05/13 04:12:39;;;;;;;;;;;;;;;16.12;44.31;101678.75;4089767;28;20017;-65
2023/05/13 04:14:41;;;;;;;;;;;;;;;16.09;44.56;101690.84;4109538;28;20345;-65
2023/05/13 04:16:44;;;;;;;;;;;;;;;16.09;44.34;101692.75;4105882;28;20017;-65
2023/05/13 04:18:46;;;;;;;;;;;;;;;16.11;44.22;101694.25;4108087;28;20375;-65
2023/05/13 04:20:48;;;;;;;;;;;;;;;16.11;44.22;101696.13;4076846;29;20437;-65
2023/05/13 04:22:51;;;;;;;;;;;;;;;16.04;44.45;101694.16;4091550;29;20021;-65
2023/05/13 04:24:55;;;;;;;;;;;;;;;16.06;44.50;101699.41;4107722;28;20013;-65
2023/05/13 04:26:57;;;;;;;;;;;;;;;16.08;44.31;101700.09;4108894;28;20016;-65
2023/05/13 04:29:01;;;;;;;;;;;;;;;16.09;44.14;101700.94;4075926;29;20035;-65
2023/05/13 04:31:04;;;;;;;;;;;;;;;16.12;44.28;101700.53;4077452;29;19938;-65
2023/05/13 04:33:10;;;;;;;;;;;;;;;16.14;43.89;101704.75;4091644;28;20022;-65
2023/05/13 04:35:14;;;;;;;;;;;;;;;16.14;43.82;101707.47;4090879;29;20070;-65
2023/05/13 04:37:19;;;;;;;;;;;;;;;16.13;43.73;101704.97;4107713;28;20017;-65
2023/05/13 04:39:23;;;;;;;;;;;;;;;16.12;43.64;101706.84;4091396;29;20022;-65
2023/05/13 04:41:26;;;;;;;;;;;;;;;16.10;43.53;101708.91;4090958;29;20026;-65
2023/05/13 04:43:28;;;;;;;;;;;;;;;16.10;43.40;101710.81;4090869;28;20018;-63
2023/05/13 04:45:32;;;;;;;;;;;;;;;16.15;42.97;101717.34;4088793;29;20014;-65
2023/05/13 04:47:36;;;;;;;;;;;;;;;16.18;42.95;101716.97;4075711;29;20029;-65
2023/05/13 04:49:40;;;;;;;;;;;;;;;16.18;43.19;101719.69;4075340;29;20104;-65
2023/05/13 04:51:42;;;;;;;;;;;;;;;16.15;43.24;101720.06;4090202;29;19966;-65
2023/05/13 04:53:44;;;;;;;;;;;;;;;16.12;43.29;101714.16;4106458;28;19995;-65
2023/05/13 04:55:51;;;;;;;;;;;;;;;16.10;43.35;101722.53;4075467;29;20030;-65
2023/05/13 04:57:53;;;;;;;;;;;;;;;16.12;42.75;101719.63;4106896;28;20029;-65
2023/05/13 04:59:55;;;;;;;;;;;;;;;16.14;42.88;101721.09;4074771;29;20029;-65
2023/05/13 05:01:57;;;;;;;;;;;;;;;16.17;42.71;101717.16;4090169;28;20017;-65
2023/05/13 05:03:59;;;;;;;;;;;;;;;16.21;42.70;101722.03;4108150;28;19998;-65
2023/05/13 05:06:01;;;;;;;;;;;;;;;16.23;42.86;101724.56;4075469;29;20021;-65
2023/05/13 05:08:04;;;;;;;;;;;;;;;16.21;43.22;101724.78;4091764;29;20493;-65
2023/05/13 05:10:07;;;;;;;;;;;;;;;16.16;42.64;101729.97;4108521;28;20017;-65
2023/05/13 05:12:12;;;;;;;;;;;;;;;16.16;42.93;101732.69;4090871;29;19931;-65
2023/05/13 05:14:16;;;;;;;;;;;;;;;16.18;42.99;101727.03;4077533;29;20030;-65
2023/05/13 05:16:18;;;;;;;;;;;;;;;16.18;42.94;101736.06;4075431;29;20025;-65
2023/05/13 05:18:20;;;;;;;;;;;;;;;16.18;42.94;101730.59;4102058;28;20074;-65
2023/05/13 05:20:25;;;;;;;;;;;;;;;16.25;43.13;101735.28;4074351;29;20358;-65
2023/05/13 05:22:30;;;;;;;;;;;;;;;16.31;42.84;101740.81;4087925;29;20450;-63
2023/05/13 05:24:32;;;;;;;;;;;;;;;16.34;43.30;101739.59;4087179;29;20061;-65
2023/05/13 05:26:34;;;;;;;;;;;;;;;16.38;42.71;101735.47;4088952;29;20013;-65
2023/05/13 05:28:40;;;;;;;;;;;;;;;16.42;42.83;101738.66;4090288;29;20021;-65
2023/05/13 05:30:43;;;;;;;;;;;;;;;16.45;42.24;101735.53;4090394;28;20488;-65
2023/05/13 05:32:55;;;;;;;;;;;;;;;16.51;42.30;101745.69;4106014;28;20397;-65
2023/05/13 05:34:57;;;;;;;;;;;;;;;16.51;42.00;101740.22;4104730;28;20018;-65
2023/05/13 05:36:59;;;;;;;;;;;;;;;16.46;42.01;101743.53;4103693;28;20034;-65
2023/05/13 05:39:01;;;;;;;;;;;;;;;16.48;41.96;101737.88;4088581;29;20017;-65
2023/05/13 05:41:08;;;;;;;;;;;;;;;16.51;42.01;101741.06;4088636;29;20030;-65
2023/05/13 05:43:10;;;;;;;;;;;;;;;16.56;41.78;101740.50;4058748;29;20019;-65
2023/05/13 05:45:14;;;;;;;;;;;;;;;16.61;41.51;101740.75;4090713;29;20006;-65
2023/05/13 05:47:16;;;;;;;;;;;;;;;16.65;41.58;101743.97;4091372;28;20074;-65
2023/05/13 05:49:20;;;;;;;;;;;;;;;16.69;40.88;101743.38;4088364;29;20013;-65
2023/05/13 05:51:24;;;;;;;;;;;;;;;16.71;40.90;101749.47;4088282;29;20401;-65
2023/05/13 05:53:26;;;;;;;;;;;;;;;16.79;40.91;101753.13;4088647;28;19938;-65
2023/05/13 05:55:30;;;;;;;;;;;;;;;16.81;40.89;101749.16;4103457;28;20025;-65
2023/05/13 05:57:33;;;;;;;;;;;;;;;16.84;40.61;101758.84;4086581;29;20267;-65
2023/05/13 05:59:35;;;;;;;;;;;;;;;16.85;40.66;101757.78;4089601;29;20029;-63
2023/05/13 06:01:39;;;;;;;;;;;;;;;16.89;40.35;101753.66;4091135;28;20010;-64
2023/05/13 06:03:41;;;;;;;;;;;;;;;16.95;40.53;101752.06;4090077;29;20022;-64
2023/05/13 06:05:43;;;;;;;;;;;;;;;16.95;40.00;101746.59;4089957;29;20612;-63
2023/05/13 06:07:45;;;;;;;;;;;;;;;16.96;40.08;101751.00;4092378;29;19966;-63
2023/05/13 06:09:48;;;;;;;;;;;;;;;16.98;40.39;101752.50;4089932;29;20013;-63
2023/05/13 06:11:50;;;;;;;;;;;;;;;16.98;40.16;101746.22;4087927;29;19926;-63
2023/05/13 06:13:53;;;;;;;;;;;;;;;17.06;40.04;101748.81;4090049;28;19930;-63
2023/05/13 06:15:56;;;;;;;;;;;;;;;17.06;39.77;101743.34;4090258;29;20021;-63
2023/05/13 06:18:03;;;;;;;;;;;;;;;17.09;39.98;101742.97;4091572;29;20359;-63
2023/05/13 06:20:08;;;;;;;;;;;;;;;17.10;39.44;101741.94;4073602;29;20042;-63
2023/05/13 06:22:11;;;;;;;;;;;;;;;17.11;39.34;101744.47;4090653;29;20078;-63
2023/05/13 06:24:13;;;;;;;;;;;;;;;17.13;39.73;101749.69;4088085;29;19961;-63
2023/05/13 06:26:15;;;;;;;;;;;;;;;17.17;40.08;101748.28;4087844;29;20013;-63
2023/05/13 06:28:17;;;;;;;;;;;;;;;17.21;40.23;101745.97;4087929;29;20018;-63
2023/05/13 06:30:20;;;;;;;;;;;;;;;17.25;39.93;101747.28;4072881;29;20022;-63
2023/05/13 06:32:22;;;;;;;;;;;;;;;17.27;39.90;101745.19;4089506;29;20041;-63
2023/05/13 06:34:25;;;;;;;;;;;;;;;17.29;39.63;101749.44;4090271;29;20021;-63
2023/05/13 06:36:27;;;;;;;;;;;;;;;17.33;39.87;101746.31;4087736;29;20009;-64
2023/05/13 06:38:29;;;;;;;;;;;;;;;17.38;39.69;101738.34;4089067;29;20021;-64
2023/05/13 06:40:33;;;;;;;;;;;;;;;17.41;39.49;101735.25;4104834;28;20017;-65
2023/05/13 06:42:39;;;;;;;;;;;;;;;17.44;39.60;101732.09;4103049;28;20416;-65
2023/05/13 06:44:48;;;;;;;;;;;;;;;17.46;39.26;101743.66;4102920;28;20029;-65
2023/05/13 06:46:50;;;;;;;;;;;;;;;17.46;39.24;101727.28;4073020;29;20018;-64
2023/05/13 06:48:54;;;;;;;;;;;;;;;17.50;39.24;101725.03;4103952;28;20020;-65
2023/05/13 06:50:57;;;;;;;;;;;;;;;17.53;39.00;101733.66;4087824;29;20021;-65
2023/05/13 06:53:00;;;;;;;;;;;;;;;17.60;38.61;101730.97;4091203;29;20017;-63
2023/05/13 06:55:02;;;;;;;;;;;;;;;17.63;39.04;101728.69;4088789;29;19927;-64
2023/05/13 06:57:06;;;;;;;;;;;;;;;17.66;38.67;101730.16;4088900;29;20393;-65
2023/05/13 06:59:08;;;;;;;;;;;;;;;17.69;38.81;101724.28;4088501;29;20045;-64
2023/05/13 07:01:10;;;;;;;;;;;;;;;17.72;38.16;101717.59;4083493;29;20018;-64
2023/05/13 07:03:12;;;;;;;;;;;;;;;17.75;38.77;101723.50;4088194;29;20017;-66
2023/05/13 07:05:14;;;;;;;;;;;;;;;17.79;38.82;101713.00;4089354;29;20058;-65
2023/05/13 07:07:17;;;;;;;;;;;;;;;17.81;38.31;101717.22;4089704;29;20025;-65
2023/05/13 07:09:19;;;;;;;;;;;;;;;17.83;38.64;101722.50;4090041;29;20021;-65
2023/05/13 07:11:21;;;;;;;;;;;;;;;17.87;38.43;101718.31;4099801;28;20017;-65
2023/05/13 07:13:23;;;;;;;;;;;;;;;17.91;37.68;101716.06;4105716;28;20034;-65
2023/05/13 07:15:25;;;;;;;;;;;;;;;17.93;37.74;101720.28;4105405;28;20404;-65
2023/05/13 07:17:27;;;;;;;;;;;;;;;17.99;37.56;101721.34;4106418;28;20560;-65
2023/05/13 07:19:29;;;;;;;;;;;;;;;18.01;38.09;101716.53;4106404;28;20444;-65
2023/05/13 07:21:32;;;;;;;;;;;;;;;18.03;37.29;101716.34;4105497;28;20029;-65
2023/05/13 07:23:35;;;;;;;;;;;;;;;18.06;37.58;101705.00;4105678;28;20034;-65
2023/05/13 07:25:37;;;;;;;;;;;;;;;18.06;36.77;101710.47;4072214;29;20453;-64
2023/05/13 07:27:39;;;;;;;;;;;;;;;18.07;36.90;101707.53;4106305;28;20009;-65
2023/05/13 07:29:42;;;;;;;;;;;;;;;18.09;37.58;101705.44;4106052;28;20020;-65
2023/05/13 07:31:44;;;;;;;;;;;;;;;18.14;36.64;101702.09;4105969;28;20564;-65
2023/05/13 07:33:46;;;;;;;;;;;;;;;18.14;36.58;101702.09;4104090;28;20381;-64
2023/05/13 07:35:49;;;;;;;;;;;;;;;18.17;37.21;101699.78;4105841;28;19937;-65
2023/05/13 07:37:51;;;;;;;;;;;;;;;18.23;35.96;101702.72;4106010;28;20016;-64
2023/05/13 07:39:55;;;;;;;;;;;;;;;18.26;37.16;101699.59;4105337;28;20017;-65
2023/05/13 07:41:57;;;;;;;;;;;;;;;18.27;36.41;101702.13;4105832;28;20025;-65
2023/05/13 07:43:59;;;;;;;;;;;;;;;18.30;36.90;101703.63;4105307;28;20021;-64
2023/05/13 07:46:02;;;;;;;;;;;;;;;18.39;36.93;101696.09;4105409;28;20028;-65
2023/05/13 07:48:04;;;;;;;;;;;;;;;18.41;37.17;101693.97;4105643;28;20009;-65
2023/05/13 07:50:06;;;;;;;;;;;;;;;18.37;36.22;101701.75;4106471;28;20144;-65
2023/05/13 07:52:08;;;;;;;;;;;;;;;18.37;36.83;101691.66;4105432;28;20448;-65
2023/05/13 07:54:10;;;;;;;;;;;;;;;18.42;36.80;101701.13;4105621;28;20516;-64
2023/05/13 07:56:14;;;;;;;;;;;;;;;18.41;36.59;101694.81;4105477;28;20595;-65
2023/05/13 07:58:17;;;;;;;;;;;;;;;18.47;37.54;101699.44;4105698;28;20387;-65
2023/05/13 08:00:19;;;;;;;;;;;;;;;18.50;36.01;101690.84;4106100;28;20472;-64
2023/05/13 08:02:21;;;;;;;;;;;;;;;18.52;36.57;101688.72;4104763;28;20034;-64
2023/05/13 08:04:23;;;;;;;;;;;;;;;18.59;37.56;101693.38;4105062;28;20026;-65
2023/05/13 08:06:25;;;;;;;;;;;;;;;18.66;36.42;101688.78;4105685;28;20037;-65
2023/05/13 08:08:27;;;;;;;;;;;;;;;18.66;36.38;101688.78;4104036;28;20013;-65
2023/05/13 08:10:29;;;;;;;;;;;;;;;18.65;36.54;101701.63;4104543;28;19938;-65
2023/05/13 08:12:32;;;;;;;;;;;;;;;18.68;36.90;101684.78;4104792;28;20037;-65
2023/05/13 08:14:35;;;;;;;;;;;;;;;18.71;36.32;101702.66;4106472;28;20371;-64
2023/05/13 08:16:37;;;;;;;;;;;;;;;18.71;35.21;101692.56;4105601;28;19926;-64
2023/05/13 08:18:40;;;;;;;;;;;;;;;18.70;36.41;101699.09;4105461;28;20054;-64
2023/05/13 08:20:42;;;;;;;;;;;;;;;18.72;36.66;101699.72;4105683;28;20013;-63
2023/05/13 08:22:44;;;;;;;;;;;;;;;18.80;36.73;101700.59;4104965;28;20021;-64
2023/05/13 08:24:46;;;;;;;;;;;;;;;18.83;36.47;101700.16;4105916;28;20025;-65
2023/05/13 08:26:48;;;;;;;;;;;;;;;18.84;36.46;101708.19;4104235;28;20366;-64
2023/05/13 08:28:51;;;;;;;;;;;;;;;18.88;36.59;101711.34;4105080;28;20019;-64
2023/05/13 08:30:53;;;;;;;;;;;;;;;18.87;36.04;101701.44;4105108;28;20010;-64
2023/05/13 08:32:55;;;;;;;;;;;;;;;18.91;36.94;101702.72;4105069;28;19977;-65
2023/05/13 08:34:58;;;;;;;;;;;;;;;18.91;35.92;101700.81;4104698;28;20017;-64
2023/05/13 08:37:01;;;;;;;;;;;;;;;18.98;35.88;101710.94;4107169;28;19926;-64
2023/05/13 08:39:03;;;;;;;;;;;;;;;18.99;36.40;101697.03;4108022;28;20017;-65
2023/05/13 08:41:05;;;;;;;;;;;;;;;19.02;35.54;101706.75;4107871;28;20026;-65
2023/05/13 08:43:07;;;;;;;;;;;;;;;19.00;36.05;101706.94;4107707;28;20017;-65
2023/05/13 08:45:11;;;;;;;;;;;;;;;19.00;36.11;101711.59;4107838;28;20014;-64
2023/05/13 08:47:13;;;;;;;;;;;;;;;19.01;36.14;101714.13;4108540;28;20029;-64
2023/05/13 08:49:15;;;;;;;;;;;;;;;19.06;35.54;101710.75;4107843;28;20017;-65
2023/05/13 08:51:18;;;;;;;;;;;;;;;19.05;35.54;101707.16;4107811;28;20021;-64
2023/05/13 08:53:20;;;;;;;;;;;;;;;19.05;36.02;101709.88;4106760;28;20025;-64
2023/05/13 08:55:22;;;;;;;;;;;;;;;19.06;36.00;101703.38;4108102;28;20501;-64
2023/05/13 08:57:25;;;;;;;;;;;;;;;19.14;35.86;101706.94;4107696;28;19933;-64
2023/05/13 08:59:26;;;;;;;;;;;;;;;19.12;36.04;101704.41;4108358;28;20351;-64
2023/05/13 09:01:30;;;;;;;;;;;;;;;19.18;36.14;101708.22;4108025;28;20029;-64
2023/05/13 09:03:32;;;;;;;;;;;;;;;19.16;36.11;101713.91;4106950;28;20017;-64
2023/05/13 09:05:34;;;;;;;;;;;;;;;19.16;35.85;101704.84;4106861;28;20053;-64
2023/05/13 09:07:37;;;;;;;;;;;;;;;19.20;35.82;101696.00;4107574;28;20021;-64
2023/05/13 09:09:40;;;;;;;;;;;;;;;19.20;35.45;101708.84;4107008;28;20061;-65
2023/05/13 09:11:44;;;;;;;;;;;;;;;19.20;36.15;101703.34;4107973;28;20476;-64
2023/05/13 09:13:47;;;;;;;;;;;;;;;19.21;35.96;101702.31;4107713;28;20028;-64
2023/05/13 09:15:49;;;;;;;;;;;;;;;19.29;36.08;101699.34;4090190;29;20342;-64
2023/05/13 09:17:54;;;;;;;;;;;;;;;19.33;35.37;101689.66;4108083;28;20492;-64
2023/05/13 09:19:56;;;;;;;;;;;;;;;19.34;34.79;101691.38;4108538;28;20025;-65
2023/05/13 09:21:58;;;;;;;;;;;;;;;19.34;34.60;101685.88;4106458;28;20026;-64
2023/05/13 09:24:09;;;;;;;;;;;;;;;19.35;34.46;101687.56;4107337;28;20034;-64
2023/05/13 09:26:25;;;;;;;;;;;;;;;19.37;35.02;101684.59;4108051;28;20021;-65
2023/05/13 09:28:27;;;;;;;;;;;;;;;19.44;33.92;101697.22;4104420;28;20060;-64
2023/05/13 09:30:30;;;;;;;;;;;;;;;19.48;33.52;101694.91;4106708;28;20022;-64
2023/05/13 09:32:32;;;;;;;;;;;;;;;19.49;32.41;101693.84;4108274;28;20029;-65
2023/05/13 09:34:35;;;;;;;;;;;;;;;19.49;32.36;101684.81;4107875;28;20613;-64
2023/05/13 09:36:38;;;;;;;;;;;;;;;19.49;32.15;101693.03;4106874;28;20044;-64
2023/05/13 09:38:40;;;;;;;;;;;;;;;19.52;33.11;101678.91;4107834;28;20026;-64
2023/05/13 09:40:42;;;;;;;;;;;;;;;19.51;33.30;101686.25;4107858;28;20445;-64
2023/05/13 09:42:44;;;;;;;;;;;;;;;19.49;32.42;101680.16;4106959;28;20021;-64
2023/05/13 09:44:46;;;;;;;;;;;;;;;19.49;32.55;101674.69;4106965;28;20037;-64
2023/05/13 09:46:48;;;;;;;;;;;;;;;19.50;32.03;101678.25;4106816;28;20013;-64
2023/05/13 09:48:55;;;;;;;;;;;;;;;19.51;32.15;101682.69;4106926;28;20029;-64
2023/05/13 09:50:59;;;;;;;;;;;;;;;19.56;32.58;101677.41;4090480;28;20009;-65
2023/05/13 09:53:09;;;;;;;;;;;;;;;19.59;32.27;101674.22;4107151;28;20375;-64
2023/05/13 09:55:11;;;;;;;;;;;;;;;19.58;32.69;101686.25;4107865;28;20021;-65
2023/05/13 09:57:13;;;;;;;;;;;;;;;19.62;32.41;101665.59;4103995;28;20022;-64
2023/05/13 09:59:15;;;;;;;;;;;;;;;19.62;31.32;101666.44;4107249;28;20009;-64
2023/05/13 10:01:18;;;;;;;;;;;;;;;19.62;31.47;101671.06;4107305;28;20024;-64
2023/05/13 10:03:20;;;;;;;;;;;;;;;19.63;32.66;101664.53;4107305;28;20001;-64
2023/05/13 10:05:22;;;;;;;;;;;;;;;19.67;32.00;101673.16;4107368;28;20022;-64
2023/05/13 10:07:25;;;;;;;;;;;;;;;19.64;31.60;101658.00;4107360;28;20050;-64
2023/05/13 10:09:27;;;;;;;;;;;;;;;19.67;30.99;101668.53;4106720;28;20049;-64
2023/05/13 10:11:29;;;;;;;;;;;;;;;19.67;31.01;101656.72;4107259;28;20029;-64
2023/05/13 10:13:31;;;;;;;;;;;;;;;19.70;31.90;101665.38;4074347;29;20015;-64
2023/05/13 10:15:33;;;;;;;;;;;;;;;19.73;31.92;101667.69;4107306;28;20432;-64
2023/05/13 10:17:35;;;;;;;;;;;;;;;19.74;31.36;101646.59;4106524;28;20376;-64
2023/05/13 10:19:37;;;;;;;;;;;;;;;19.77;31.29;101662.63;4107350;28;19930;-64
2023/05/13 10:21:39;;;;;;;;;;;;;;;19.78;31.27;101664.28;4106511;28;20547;-64
2023/05/13 10:23:43;;;;;;;;;;;;;;;19.79;31.45;101666.00;4107201;28;20028;-64
2023/05/13 10:25:45;;;;;;;;;;;;;;;19.80;30.72;101660.28;4106701;28;19953;-64
2023/05/13 10:27:48;;;;;;;;;;;;;;;19.85;31.15;101656.06;4106583;28;20020;-64
2023/05/13 10:29:50;;;;;;;;;;;;;;;19.85;31.10;101656.91;4106834;28;20021;-64